createdAt,value
2019-03-21T00:00:17.695Z,35.20
2019-03-21T00:02:45.866Z,33.10
2019-03-21T00:05:14.093Z,32.20
2019-03-21T00:07:42.309Z,33.10
2019-03-21T00:10:16.402Z,33.20
2019-03-21T00:12:44.495Z,34.40
2019-03-21T00:15:22.545Z,32.70
2019-03-21T00:17:58.550Z,33.60
2019-03-21T00:20:36.871Z,33.20
2019-03-21T00:23:05.655Z,33.50
2019-03-21T00:25:35.197Z,33.50
2019-03-21T00:28:03.773Z,33.90
2019-03-21T00:33:26.220Z,34.00
2019-03-21T00:35:54.242Z,34.10
2019-03-21T00:38:22.220Z,34.20
2019-03-21T00:40:50.575Z,34.10
2019-03-21T00:43:20.820Z,34.20
2019-03-21T00:45:50.298Z,34.00
2019-03-21T00:50:46.588Z,33.70
2019-03-21T00:53:14.532Z,34.00
2019-03-21T00:55:43.509Z,33.80
2019-03-21T00:58:11.775Z,34.50
2019-03-21T01:00:42.578Z,33.80
2019-03-21T01:03:11.403Z,34.30
2019-03-21T01:05:39.376Z,33.90
2019-03-21T01:08:07.844Z,34.00
2019-03-21T01:10:36.661Z,34.20
2019-03-21T01:13:05.524Z,35.20
2019-03-21T01:15:34.511Z,33.90
2019-03-21T01:18:03.055Z,35.90
2019-03-21T01:20:31.258Z,34.30
2019-03-21T01:22:59.453Z,34.40
2019-03-21T01:25:31.280Z,34.60
2019-03-21T01:27:59.630Z,36.40
2019-03-21T01:30:29.061Z,34.60
2019-03-21T01:32:57.874Z,34.50
2019-03-21T01:35:26.132Z,34.70
2019-03-21T01:37:55.854Z,37.30
2019-03-21T01:40:26.124Z,34.80
2019-03-21T01:42:54.150Z,34.70
2019-03-21T01:45:22.614Z,34.60
2019-03-21T01:47:51.389Z,34.70
2019-03-21T01:50:19.471Z,35.40
2019-03-21T01:52:47.523Z,34.80
2019-03-21T01:55:15.529Z,34.70
2019-03-21T01:57:43.525Z,35.50
2019-03-21T02:00:15.030Z,35.30
2019-03-21T02:02:43.236Z,35.20
2019-03-21T02:05:11.287Z,35.20
2019-03-21T02:07:39.211Z,35.30
2019-03-21T02:10:09.713Z,35.30
2019-03-21T02:12:38.661Z,35.20
2019-03-21T02:15:07.947Z,35.20
2019-03-21T02:17:35.915Z,35.20
2019-03-21T02:20:04.325Z,35.50
2019-03-21T02:22:32.273Z,35.50
2019-03-21T02:27:27.925Z,35.30
2019-03-21T02:29:55.949Z,35.40
2019-03-21T02:32:23.963Z,35.60
2019-03-21T02:34:52.017Z,36.60
2019-03-21T02:39:58.547Z,35.80
2019-03-21T02:42:17.571Z,35.90
2019-03-21T02:44:45.747Z,36.00
2019-03-21T02:47:14.006Z,36.20
2019-03-21T02:49:42.016Z,35.80
2019-03-21T02:52:10.382Z,36.10
2019-03-21T02:54:38.798Z,36.10
2019-03-21T02:57:06.797Z,36.10
2019-03-21T02:59:36.059Z,36.60
2019-03-21T03:02:04.179Z,36.50
2019-03-21T03:04:32.312Z,36.30
2019-03-21T03:07:00.405Z,36.30
2019-03-21T03:09:28.275Z,36.30
2019-03-21T03:11:56.232Z,37.70
2019-03-21T03:16:51.994Z,36.50
2019-03-21T03:19:20.013Z,36.60
2019-03-21T03:21:48.034Z,36.70
2019-03-21T03:24:16.993Z,39.30
2019-03-21T03:26:45.148Z,36.90
2019-03-21T03:29:14.088Z,36.80
2019-03-21T03:31:42.605Z,36.90
2019-03-21T03:34:11.026Z,37.10
2019-03-21T03:41:35.214Z,37.00
2019-03-21T03:44:03.673Z,37.30
2019-03-21T03:46:31.825Z,37.40
2019-03-21T03:49:00.039Z,37.30
2019-03-21T03:51:50.356Z,37.30
2019-03-21T03:54:18.768Z,37.30
2019-03-21T03:56:47.074Z,39.20
2019-03-21T03:59:15.282Z,37.50
2019-03-21T04:01:43.648Z,37.50
2019-03-21T04:04:11.741Z,37.50
2019-03-21T04:06:39.775Z,37.70
2019-03-21T04:09:08.470Z,37.60
2019-03-21T04:11:37.041Z,38.30
2019-03-21T04:14:05.419Z,37.50
2019-03-21T04:16:34.383Z,37.80
2019-03-21T04:19:02.603Z,37.80
2019-03-21T04:21:30.696Z,37.90
2019-03-21T04:24:00.069Z,37.80
2019-03-21T04:26:31.266Z,37.90
2019-03-21T04:29:00.299Z,37.90
2019-03-21T04:31:28.442Z,37.80
2019-03-21T04:33:58.324Z,38.00
2019-03-21T04:36:26.640Z,38.00
2019-03-21T04:41:22.831Z,38.10
2019-03-21T04:43:51.329Z,38.10
2019-03-21T04:46:19.547Z,38.00
2019-03-21T04:48:47.745Z,38.20
2019-03-21T04:51:15.946Z,38.10
2019-03-21T04:53:44.154Z,38.30
2019-03-21T04:56:12.160Z,38.20
2019-03-21T04:58:40.708Z,38.30
2019-03-21T05:01:33.839Z,38.30
2019-03-21T05:09:00.851Z,38.10
2019-03-21T05:11:29.215Z,38.40
2019-03-21T05:13:57.373Z,38.30
2019-03-21T05:16:25.569Z,38.40
2019-03-21T05:18:54.865Z,38.50
2019-03-21T05:21:23.083Z,38.60
2019-03-21T05:26:19.199Z,38.70
2019-03-21T05:31:18.547Z,38.80
2019-03-21T05:33:47.961Z,38.80
2019-03-21T05:36:16.057Z,39.00
2019-03-21T05:38:44.323Z,39.00
2019-03-21T05:41:12.304Z,39.10
2019-03-21T05:43:53.013Z,39.00
2019-03-21T05:46:26.446Z,39.40
2019-03-21T05:51:18.877Z,39.40
2019-03-21T05:53:49.753Z,39.50
2019-03-21T05:56:17.961Z,39.70
2019-03-21T05:58:46.993Z,39.50
2019-03-21T06:01:15.399Z,39.50
2019-03-21T06:03:50.013Z,39.90
2019-03-21T06:06:22.420Z,39.70
2019-03-21T06:08:50.922Z,39.80
2019-03-21T06:11:22.563Z,39.60
2019-03-21T06:13:56.599Z,39.90
2019-03-21T06:16:51.477Z,39.90
2019-03-21T06:19:40.031Z,39.80
2019-03-21T06:22:58.240Z,40.20
2019-03-21T06:25:53.719Z,40.60
2019-03-21T06:28:23.386Z,40.40
2019-03-21T06:30:51.396Z,40.50
2019-03-21T06:33:19.454Z,40.70
2019-03-21T06:35:50.508Z,40.00
2019-03-21T06:38:41.178Z,40.90
2019-03-21T06:41:09.089Z,41.50
2019-03-21T06:43:36.994Z,40.40
2019-03-21T06:46:05.088Z,41.20
2019-03-21T06:48:33.391Z,41.00
2019-03-21T06:51:07.328Z,39.60
2019-03-21T06:53:35.324Z,42.10
2019-03-21T06:56:03.544Z,41.30
2019-03-21T06:58:31.708Z,40.90
2019-03-21T07:01:01.937Z,40.50
2019-03-21T07:03:29.904Z,40.30
2019-03-21T07:06:03.160Z,41.50
2019-03-21T07:08:32.538Z,41.50
2019-03-21T07:11:03.842Z,40.90
2019-03-21T07:13:32.330Z,41.10
2019-03-21T07:16:03.426Z,40.80
2019-03-21T07:18:31.381Z,40.80
2019-03-21T07:21:01.161Z,40.60
2019-03-21T07:23:31.756Z,40.60
2019-03-21T07:25:59.919Z,40.60
2019-03-21T07:28:28.310Z,42.10
2019-03-21T07:30:58.869Z,40.60
2019-03-21T07:33:27.180Z,40.50
2019-03-21T07:35:56.806Z,40.40
2019-03-21T07:38:27.422Z,40.40
2019-03-21T07:40:57.502Z,41.00
2019-03-21T07:43:30.505Z,41.70
2019-03-21T07:45:58.516Z,40.20
2019-03-21T07:48:26.570Z,40.00
2019-03-21T07:50:54.626Z,39.90
2019-03-21T07:53:22.440Z,39.80
2019-03-21T07:55:50.577Z,39.90
2019-03-21T07:58:18.767Z,41.60
2019-03-21T08:00:47.720Z,40.00
2019-03-21T08:03:15.895Z,41.00
2019-03-21T08:05:43.933Z,40.00
2019-03-21T08:08:11.922Z,40.20
2019-03-21T08:10:40.356Z,40.70
2019-03-21T08:13:08.335Z,40.20
2019-03-21T08:15:37.911Z,40.10
2019-03-21T08:18:06.102Z,40.90
2019-03-21T08:20:34.273Z,39.60
2019-03-21T08:23:02.599Z,38.50
2019-03-21T08:25:30.623Z,38.20
2019-03-21T08:27:58.655Z,37.90
2019-03-21T08:30:33.575Z,37.80
2019-03-21T08:33:03.098Z,37.80
2019-03-21T08:35:31.205Z,37.60
2019-03-21T08:37:59.137Z,37.30
2019-03-21T08:40:27.185Z,37.00
2019-03-21T08:42:55.291Z,36.60
2019-03-21T08:45:23.425Z,37.50
2019-03-21T08:51:07.653Z,35.80
2019-03-21T08:53:28.525Z,36.50
2019-03-21T08:55:57.141Z,35.30
2019-03-21T08:58:25.161Z,34.90
2019-03-21T09:00:54.595Z,34.40
2019-03-21T09:03:22.733Z,34.40
2019-03-21T09:05:50.970Z,34.00
2019-03-21T09:08:18.911Z,34.80
2019-03-21T09:10:46.843Z,32.70
2019-03-21T09:13:14.806Z,31.70
2019-03-21T09:15:43.142Z,30.90
2019-03-21T09:18:11.541Z,30.10
2019-03-21T09:20:39.511Z,29.80
2019-03-21T09:23:07.617Z,29.80
2019-03-21T09:25:35.884Z,29.50
2019-03-21T09:28:03.918Z,29.30
2019-03-21T09:30:32.005Z,28.90
2019-03-21T09:33:00.163Z,28.70
2019-03-21T09:35:28.275Z,28.30
2019-03-21T09:37:56.237Z,28.00
2019-03-21T09:40:24.079Z,27.80
2019-03-21T09:42:52.065Z,27.10
2019-03-21T09:45:19.937Z,26.70
2019-03-21T09:47:47.953Z,26.40
2019-03-21T09:50:27.020Z,26.10
2019-03-21T09:52:55.050Z,25.80
2019-03-21T09:55:23.188Z,25.60
2019-03-21T09:57:51.183Z,25.30
2019-03-21T10:00:32.526Z,24.70
2019-03-21T10:03:00.955Z,24.40
2019-03-21T10:05:28.916Z,23.90
2019-03-21T10:07:59.356Z,23.80
2019-03-21T10:10:28.718Z,23.60
2019-03-21T10:12:57.278Z,23.70
2019-03-21T10:15:26.274Z,23.30
2019-03-21T10:17:56.897Z,22.80
2019-03-21T10:20:24.952Z,22.40
2019-03-21T10:22:53.003Z,22.00
2019-03-21T10:25:21.291Z,21.80
2019-03-21T10:27:49.268Z,21.50
2019-03-21T10:30:49.918Z,20.80
2019-03-21T10:33:17.790Z,20.50
2019-03-21T10:35:45.780Z,20.20
2019-03-21T10:38:13.750Z,19.80
2019-03-21T10:40:41.804Z,19.60
2019-03-21T10:43:10.654Z,19.30
2019-03-21T10:45:38.806Z,19.10
2019-03-21T10:48:06.811Z,18.60
2019-03-21T10:50:38.927Z,18.60
2019-03-21T10:53:07.259Z,18.50
2019-03-21T10:55:35.378Z,18.50
2019-03-21T10:58:04.027Z,18.60
2019-03-21T11:00:32.633Z,18.50
2019-03-21T11:03:00.690Z,18.40
2019-03-21T11:05:28.687Z,18.40
2019-03-21T11:07:56.757Z,18.20
2019-03-21T11:10:24.799Z,18.00
2019-03-21T11:12:52.721Z,17.80
2019-03-21T11:15:21.263Z,17.70
2019-03-21T11:17:50.111Z,17.50
2019-03-21T11:20:38.147Z,17.30
2019-03-21T11:23:07.118Z,17.10
2019-03-21T11:25:35.354Z,17.00
2019-03-21T11:28:03.828Z,16.70
2019-03-21T11:30:36.527Z,16.60
2019-03-21T11:33:04.894Z,16.20
2019-03-21T11:35:33.159Z,16.00
2019-03-21T11:38:01.243Z,15.90
2019-03-21T11:43:24.659Z,15.90
2019-03-21T11:45:55.192Z,15.50
2019-03-21T11:48:23.108Z,15.30
2019-03-21T11:50:52.663Z,15.40
2019-03-21T11:53:21.074Z,15.40
2019-03-21T11:55:49.172Z,14.70
2019-03-21T11:58:17.755Z,15.30
2019-03-21T12:00:45.979Z,15.20
2019-03-21T12:03:14.063Z,15.40
2019-03-21T12:05:42.443Z,15.20
2019-03-21T12:08:10.411Z,15.00
2019-03-21T12:10:38.352Z,14.80
2019-03-21T12:13:06.494Z,14.60
2019-03-21T12:15:34.404Z,14.60
2019-03-21T12:18:02.676Z,14.50
2019-03-21T12:20:33.886Z,14.40
2019-03-21T12:23:02.435Z,14.30
2019-03-21T12:25:30.372Z,14.10
2019-03-21T12:28:01.244Z,13.90
2019-03-21T12:30:33.279Z,13.80
2019-03-21T12:33:01.364Z,14.00
2019-03-21T12:35:29.392Z,13.70
2019-03-21T12:37:57.594Z,13.40
2019-03-21T12:40:25.733Z,13.40
2019-03-21T12:42:53.918Z,13.60
2019-03-21T12:45:22.165Z,13.70
2019-03-21T12:47:50.339Z,13.90
2019-03-21T12:50:18.738Z,13.50
2019-03-21T12:52:47.974Z,13.50
2019-03-21T12:55:15.907Z,13.50
2019-03-21T12:57:43.869Z,13.40
2019-03-21T13:00:12.375Z,13.40
2019-03-21T13:02:43.038Z,13.30
2019-03-21T13:05:15.896Z,13.10
2019-03-21T13:07:43.809Z,13.00
2019-03-21T13:10:11.814Z,13.10
2019-03-21T13:12:39.780Z,13.00
2019-03-21T13:15:09.149Z,12.50
2019-03-21T13:17:47.578Z,13.20
2019-03-21T13:20:15.709Z,13.30
2019-03-21T13:22:52.572Z,13.50
2019-03-21T13:25:14.238Z,13.20
2019-03-21T13:27:42.828Z,13.30
2019-03-21T13:30:12.970Z,13.20
2019-03-21T13:32:41.232Z,13.00
2019-03-21T13:35:10.097Z,13.00
2019-03-21T13:37:38.650Z,12.70
2019-03-21T13:40:06.983Z,12.90
2019-03-21T13:42:38.673Z,12.80
2019-03-21T13:45:07.426Z,12.80
2019-03-21T13:47:37.049Z,12.90
2019-03-21T13:50:06.060Z,12.80
2019-03-21T13:52:36.214Z,12.70
2019-03-21T13:55:08.022Z,11.10
2019-03-21T13:57:36.341Z,13.00
2019-03-21T14:00:11.003Z,13.10
2019-03-21T14:02:39.071Z,13.00
2019-03-21T14:05:08.313Z,13.10
2019-03-21T14:07:36.449Z,13.10
2019-03-21T14:10:04.976Z,13.10
2019-03-21T14:12:33.059Z,13.20
2019-03-21T14:15:01.133Z,13.10
2019-03-21T14:17:29.395Z,13.10
2019-03-21T14:19:57.398Z,13.30
2019-03-21T14:22:25.504Z,13.30
2019-03-21T14:24:53.822Z,13.20
2019-03-21T14:27:22.313Z,13.30
2019-03-21T14:30:00.792Z,13.70
2019-03-21T14:32:20.517Z,13.40
2019-03-21T14:34:48.655Z,13.60
2019-03-21T14:37:16.885Z,13.30
2019-03-21T14:39:45.049Z,13.30
2019-03-21T14:42:13.207Z,13.30
2019-03-21T14:44:41.347Z,13.50
2019-03-21T14:47:09.656Z,13.40
2019-03-21T14:49:38.018Z,13.40
2019-03-21T14:52:06.255Z,14.00
2019-03-21T14:54:34.502Z,15.20
2019-03-21T14:57:02.966Z,13.70
2019-03-21T14:59:31.215Z,14.10
2019-03-21T15:01:59.489Z,14.20
2019-03-21T15:04:27.772Z,14.30
2019-03-21T15:06:55.813Z,14.20
2019-03-21T15:09:23.701Z,14.60
2019-03-21T15:11:51.783Z,14.50
2019-03-21T15:14:20.783Z,14.70
2019-03-21T15:16:49.019Z,14.90
2019-03-21T15:19:17.106Z,14.80
2019-03-21T15:21:45.320Z,14.90
2019-03-21T15:24:13.529Z,15.10
2019-03-21T15:26:41.747Z,15.20
2019-03-21T15:29:09.799Z,15.10
2019-03-21T15:31:37.908Z,15.20
2019-03-21T15:34:06.152Z,15.20
2019-03-21T15:36:34.246Z,15.40
2019-03-21T15:39:06.070Z,15.70
2019-03-21T15:41:34.226Z,15.20
2019-03-21T15:44:02.246Z,15.60
2019-03-21T15:46:30.188Z,15.50
2019-03-21T15:48:58.230Z,15.70
2019-03-21T15:51:26.194Z,15.70
2019-03-21T15:53:56.573Z,15.80
2019-03-21T15:56:24.340Z,17.40
2019-03-21T15:58:52.619Z,15.80
2019-03-21T16:01:21.223Z,16.00
2019-03-21T16:03:49.521Z,16.00
2019-03-21T16:06:17.584Z,16.40
2019-03-21T16:08:45.842Z,16.70
2019-03-21T16:11:14.002Z,16.80
2019-03-21T16:14:01.810Z,17.00
2019-03-21T16:16:30.056Z,17.10
2019-03-21T16:18:58.219Z,15.80
2019-03-21T16:21:26.342Z,16.80
2019-03-21T16:24:04.490Z,16.60
2019-03-21T16:26:24.824Z,17.50
2019-03-21T16:28:52.789Z,17.50
2019-03-21T16:31:20.887Z,17.70
2019-03-21T16:33:49.626Z,17.70
2019-03-21T16:36:17.720Z,17.20
2019-03-21T16:38:45.935Z,17.50
2019-03-21T16:41:14.276Z,17.70
2019-03-21T16:43:42.409Z,18.00
2019-03-21T16:46:10.489Z,17.80
2019-03-21T16:48:38.660Z,18.10
2019-03-21T16:51:15.370Z,17.90
2019-03-21T16:53:44.265Z,18.20
2019-03-21T16:56:13.572Z,19.80
2019-03-21T16:58:41.629Z,19.50
2019-03-21T17:01:09.896Z,18.40
2019-03-21T17:03:38.155Z,18.60
2019-03-21T17:06:06.245Z,18.70
2019-03-21T17:08:34.630Z,18.90
2019-03-21T17:11:02.657Z,18.70
2019-03-21T17:13:30.727Z,19.50
2019-03-21T17:15:58.797Z,19.10
2019-03-21T17:18:26.779Z,19.20
2019-03-21T17:20:54.895Z,19.10
2019-03-21T17:23:23.036Z,19.40
2019-03-21T17:25:50.990Z,19.20
2019-03-21T17:30:46.693Z,19.20
2019-03-21T17:33:14.691Z,20.50
2019-03-21T17:35:42.647Z,20.30
2019-03-21T17:38:11.752Z,20.10
2019-03-21T17:40:39.842Z,20.30
2019-03-21T17:43:07.862Z,20.70
2019-03-21T17:45:35.815Z,20.90
2019-03-21T17:48:04.214Z,20.80
2019-03-21T17:50:32.944Z,21.00
2019-03-21T17:53:01.321Z,21.00
2019-03-21T17:55:29.377Z,21.50
2019-03-21T17:57:57.603Z,21.30
2019-03-21T18:00:26.642Z,21.20
2019-03-21T18:02:55.198Z,21.60
2019-03-21T18:05:23.749Z,21.70
2019-03-21T18:07:51.899Z,21.70
2019-03-21T18:10:27.989Z,21.50
2019-03-21T18:12:56.496Z,21.60
2019-03-21T18:15:24.542Z,22.10
2019-03-21T18:17:52.565Z,22.20
2019-03-21T18:20:20.565Z,22.20
2019-03-21T18:22:48.730Z,22.10
2019-03-21T18:25:16.788Z,22.90
2019-03-21T18:27:44.839Z,23.00
2019-03-21T18:30:12.978Z,23.10
2019-03-21T18:32:40.988Z,23.10
2019-03-21T18:35:09.711Z,23.10
2019-03-21T18:37:39.622Z,23.20
2019-03-21T18:40:09.060Z,23.50
2019-03-21T18:42:37.247Z,23.20
2019-03-21T18:45:06.179Z,23.50
2019-03-21T18:47:34.179Z,23.60
2019-03-21T18:50:02.256Z,23.90
2019-03-21T18:52:30.658Z,23.60
2019-03-21T19:06:44.053Z,24.00
2019-03-21T19:14:35.134Z,24.30
2019-03-21T19:17:03.319Z,23.80
2019-03-21T19:19:31.634Z,24.60
2019-03-21T19:22:00.102Z,25.20
2019-03-21T19:27:00.328Z,24.90
2019-03-21T19:29:28.354Z,25.10
2019-03-21T19:31:56.550Z,24.90
2019-03-21T19:34:25.276Z,24.90
2019-03-21T19:36:56.157Z,25.70
2019-03-21T19:39:24.568Z,25.40
2019-03-21T19:41:53.283Z,25.80
2019-03-21T19:44:22.780Z,25.90
2019-03-21T19:47:01.384Z,25.80
2019-03-21T19:49:30.141Z,25.70
2019-03-21T19:51:59.065Z,26.10
2019-03-21T19:54:27.257Z,25.80
2019-03-21T19:56:56.021Z,25.80
2019-03-21T19:59:24.137Z,26.50
2019-03-21T20:01:52.404Z,25.50
2019-03-21T20:04:22.577Z,26.00
2019-03-21T20:06:55.515Z,26.30
2019-03-21T20:14:59.141Z,26.30
2019-03-21T20:17:27.420Z,26.10
2019-03-21T20:19:55.740Z,26.20
2019-03-21T20:22:25.342Z,26.20
2019-03-21T20:24:54.457Z,26.40
2019-03-21T20:27:23.609Z,26.40
2019-03-21T20:29:53.666Z,26.60
2019-03-21T20:32:21.800Z,26.90
2019-03-21T20:34:52.807Z,26.90
2019-03-21T20:37:20.877Z,26.70
2019-03-21T20:39:49.079Z,26.80
2019-03-21T20:42:17.197Z,28.20
2019-03-21T20:44:48.940Z,27.70
2019-03-21T20:47:16.927Z,26.40
2019-03-21T20:49:45.332Z,27.10
2019-03-21T20:52:13.555Z,27.00
2019-03-21T20:54:42.717Z,27.70
2019-03-21T20:57:11.919Z,27.10
2019-03-21T20:59:40.147Z,27.40
2019-03-21T21:02:08.542Z,27.40
2019-03-21T21:04:56.663Z,27.20
2019-03-21T21:07:25.118Z,27.40
2019-03-21T21:09:59.051Z,27.90
2019-03-21T21:12:27.865Z,27.40
2019-03-21T21:14:58.692Z,28.00
2019-03-21T21:17:27.812Z,27.90
2019-03-21T21:19:57.878Z,27.40
2019-03-21T21:22:35.089Z,27.60
2019-03-21T21:27:49.733Z,27.40
2019-03-21T21:30:16.639Z,27.40
2019-03-21T21:32:46.666Z,27.50
2019-03-21T21:35:18.341Z,27.40
2019-03-21T21:37:47.110Z,27.00
2019-03-21T21:40:17.107Z,28.20
2019-03-21T21:42:49.608Z,28.20
2019-03-21T21:45:21.766Z,27.40
2019-03-21T21:47:50.837Z,28.50
2019-03-21T21:50:20.974Z,28.40
2019-03-21T21:52:49.812Z,27.70
2019-03-21T21:55:18.090Z,28.00
2019-03-21T21:57:46.291Z,27.70
2019-03-21T22:00:17.533Z,27.90
2019-03-21T22:02:49.635Z,28.00
2019-03-21T22:08:11.421Z,28.00
2019-03-21T22:10:39.676Z,29.00
2019-03-21T22:13:07.977Z,28.70
2019-03-21T22:15:36.268Z,28.20
2019-03-21T22:18:08.549Z,28.50
2019-03-21T22:20:41.495Z,28.30
2019-03-21T22:23:10.796Z,28.60
2019-03-21T22:25:39.118Z,28.30
2019-03-21T22:28:10.091Z,28.50
2019-03-21T22:30:38.491Z,28.60
2019-03-21T22:33:09.383Z,28.90
2019-03-21T22:35:37.505Z,28.60
2019-03-21T22:38:05.547Z,28.80
2019-03-21T22:40:56.211Z,28.90
2019-03-21T22:43:25.120Z,28.80
2019-03-21T22:45:56.225Z,28.80
2019-03-21T22:48:26.055Z,28.90
2019-03-21T22:50:54.451Z,29.40
2019-03-21T22:56:03.198Z,29.30
2019-03-21T22:58:33.153Z,29.50
2019-03-21T23:01:02.489Z,29.30
2019-03-21T23:05:59.709Z,29.70
2019-03-21T23:08:29.008Z,29.70
2019-03-21T23:10:57.085Z,30.00
2019-03-21T23:13:25.053Z,30.00
2019-03-21T23:15:56.479Z,30.00
2019-03-21T23:18:25.113Z,30.20
2019-03-21T23:20:53.282Z,30.00
2019-03-21T23:23:21.896Z,30.80
2019-03-21T23:25:50.045Z,30.40
2019-03-21T23:28:22.681Z,30.40
2019-03-21T23:30:52.041Z,30.30
2019-03-21T23:33:21.357Z,30.50
2019-03-21T23:35:49.527Z,30.50
2019-03-21T23:38:17.841Z,30.60
2019-03-21T23:41:05.153Z,30.60
2019-03-21T23:43:38.675Z,30.60
2019-03-21T23:46:06.883Z,30.70
2019-03-21T23:48:36.943Z,30.80
2019-03-21T23:51:05.003Z,30.80
2019-03-21T23:53:33.040Z,31.00
2019-03-21T23:56:22.784Z,30.90
